createdAt,value
2023-06-07T00:00:35.469Z,101289.50
2023-06-07T00:03:03.012Z,101292.19
2023-06-07T00:05:32.372Z,101288.63
2023-06-07T00:07:59.661Z,101292.19
2023-06-07T00:10:26.984Z,101294.03
2023-06-07T00:12:54.303Z,101293.19
2023-06-07T00:15:21.645Z,101297.56
2023-06-07T00:17:49.012Z,101299.44
2023-06-07T00:20:16.388Z,101286.09
2023-06-07T00:22:43.646Z,101289.63
2023-06-07T00:25:11.040Z,101294.03
2023-06-07T00:27:40.038Z,101295.03
2023-06-07T00:30:07.767Z,101289.63
2023-06-07T00:32:35.214Z,101291.50
2023-06-07T00:35:02.492Z,101297.72
2023-06-07T00:37:29.783Z,101299.56
2023-06-07T00:39:57.028Z,101299.56
2023-06-07T00:42:24.243Z,101300.44
2023-06-07T00:44:51.616Z,101289.75
2023-06-07T00:47:19.446Z,101298.69
2023-06-07T00:49:46.891Z,101297.72
2023-06-07T00:52:14.341Z,101294.19
2023-06-07T00:54:41.932Z,101296.88
2023-06-07T00:57:09.397Z,101298.69
2023-06-07T00:59:38.143Z,101292.47
2023-06-07T01:02:06.323Z,101293.31
2023-06-07T01:04:35.865Z,101297.84
2023-06-07T01:07:03.864Z,101295.16
2023-06-07T01:09:31.953Z,101288.91
2023-06-07T01:11:59.566Z,101296.00
2023-06-07T01:14:27.281Z,101285.22
2023-06-07T01:16:54.942Z,101286.09
2023-06-07T01:19:28.355Z,101284.38
2023-06-07T01:22:02.462Z,101296.88
2023-06-07T01:24:31.152Z,101289.75
2023-06-07T01:27:00.339Z,101286.22
2023-06-07T01:29:28.504Z,101286.22
2023-06-07T01:31:57.726Z,101284.38
2023-06-07T01:34:25.809Z,101287.22
2023-06-07T01:36:55.171Z,101283.53
2023-06-07T01:39:22.983Z,101284.38
2023-06-07T01:41:51.288Z,101282.66
2023-06-07T01:44:19.893Z,101278.97
2023-06-07T01:46:48.101Z,101271.88
2023-06-07T01:49:18.006Z,101271.88
2023-06-07T01:51:45.524Z,101278.13
2023-06-07T01:54:13.602Z,101271.88
2023-06-07T01:57:02.562Z,101281.81
2023-06-07T01:59:49.204Z,101269.19
2023-06-07T02:02:44.301Z,101271.88
2023-06-07T02:05:18.957Z,101273.72
2023-06-07T02:07:53.070Z,101267.50
2023-06-07T02:10:22.663Z,101267.50
2023-06-07T02:12:53.029Z,101279.13
2023-06-07T02:15:21.037Z,101270.19
2023-06-07T02:17:58.754Z,101267.50
2023-06-07T02:20:27.377Z,101269.31
2023-06-07T02:22:55.409Z,101283.66
2023-06-07T02:25:23.154Z,101275.59
2023-06-07T02:27:50.898Z,101274.69
2023-06-07T02:30:18.346Z,101273.84
2023-06-07T02:32:51.708Z,101265.75
2023-06-07T02:35:19.639Z,101275.59
2023-06-07T02:37:47.115Z,101268.47
2023-06-07T02:40:15.055Z,101268.34
2023-06-07T02:42:46.789Z,101268.47
2023-06-07T02:45:14.442Z,101276.56
2023-06-07T02:47:42.205Z,101273.84
2023-06-07T02:50:10.070Z,101272.16
2023-06-07T02:52:38.075Z,101270.19
2023-06-07T02:55:06.069Z,101266.75
2023-06-07T02:57:33.432Z,101272.16
2023-06-07T03:00:01.065Z,101279.25
2023-06-07T03:02:29.124Z,101278.41
2023-06-07T03:04:57.552Z,101273.00
2023-06-07T03:07:24.897Z,101277.56
2023-06-07T03:09:52.899Z,101266.75
2023-06-07T03:12:20.188Z,101274.84
2023-06-07T03:14:47.405Z,101275.84
2023-06-07T03:17:15.915Z,101272.16
2023-06-07T03:19:43.333Z,101274.00
2023-06-07T03:22:10.931Z,101277.56
2023-06-07T03:24:38.261Z,101276.69
2023-06-07T03:27:06.842Z,101279.41
2023-06-07T03:29:34.338Z,101282.22
2023-06-07T03:32:01.561Z,101285.75
2023-06-07T03:34:33.596Z,101279.53
2023-06-07T03:37:00.887Z,101284.91
2023-06-07T03:39:28.330Z,101286.63
2023-06-07T03:41:55.570Z,101283.06
2023-06-07T03:44:22.875Z,101279.53
2023-06-07T03:46:50.311Z,101274.97
2023-06-07T03:49:17.548Z,101282.22
2023-06-07T03:51:45.044Z,101278.56
2023-06-07T03:54:12.363Z,101275.97
2023-06-07T03:56:39.681Z,101279.53
2023-06-07T03:59:07.722Z,101279.53
2023-06-07T04:01:35.028Z,101276.81
2023-06-07T04:04:02.791Z,101276.81
2023-06-07T04:06:30.112Z,101282.22
2023-06-07T04:09:01.145Z,101275.13
2023-06-07T04:11:29.065Z,101277.81
2023-06-07T04:13:56.591Z,101280.38
2023-06-07T04:16:23.968Z,101272.44
2023-06-07T04:18:51.248Z,101284.06
2023-06-07T04:21:18.530Z,101285.91
2023-06-07T04:23:46.172Z,101284.06
2023-06-07T04:26:17.096Z,101285.06
2023-06-07T04:28:44.407Z,101288.59
2023-06-07T04:31:14.071Z,101289.44
2023-06-07T04:33:41.521Z,101283.22
2023-06-07T04:36:09.922Z,101282.38
2023-06-07T04:38:49.975Z,101277.81
2023-06-07T04:41:37.008Z,101283.22
2023-06-07T04:44:05.911Z,101283.22
2023-06-07T04:46:33.370Z,101278.66
2023-06-07T04:49:01.366Z,101275.13
2023-06-07T04:51:31.042Z,101274.41
2023-06-07T04:54:02.156Z,101283.63
2023-06-07T04:56:29.688Z,101281.06
2023-06-07T04:58:57.573Z,101280.31
2023-06-07T05:01:25.615Z,101285.88
2023-06-07T05:04:03.466Z,101282.31
2023-06-07T05:06:32.309Z,101286.72
2023-06-07T05:08:59.684Z,101283.75
2023-06-07T05:11:27.359Z,101282.06
2023-06-07T05:13:54.588Z,101283.03
2023-06-07T05:16:22.081Z,101285.72
2023-06-07T05:18:52.480Z,101287.84
2023-06-07T05:21:19.771Z,101290.94
2023-06-07T05:23:47.258Z,101293.19
2023-06-07T05:26:14.553Z,101285.25
2023-06-07T05:28:41.958Z,101292.59
2023-06-07T05:31:11.911Z,101287.59
2023-06-07T05:33:40.169Z,101282.47
2023-06-07T05:36:07.528Z,101289.56
2023-06-07T05:38:34.740Z,101287.00
2023-06-07T05:41:02.037Z,101284.59
2023-06-07T05:43:29.412Z,101284.59
2023-06-07T05:45:56.740Z,101292.41
2023-06-07T05:48:24.001Z,101289.44
2023-06-07T05:50:53.263Z,101289.31
2023-06-07T05:53:21.129Z,101291.03
2023-06-07T05:55:49.279Z,101284.50
2023-06-07T05:58:17.227Z,101288.22
2023-06-07T06:00:48.364Z,101286.34
2023-06-07T06:03:19.073Z,101283.66
2023-06-07T06:05:46.372Z,101290.75
2023-06-07T06:08:14.487Z,101297.88
2023-06-07T06:10:41.890Z,101290.75
2023-06-07T06:13:09.114Z,101297.88
2023-06-07T06:15:37.000Z,101292.47
2023-06-07T06:18:04.690Z,101291.59
2023-06-07T06:20:34.853Z,101295.19
2023-06-07T06:23:04.979Z,101297.88
2023-06-07T06:25:32.549Z,101300.56
2023-06-07T06:27:59.809Z,101301.41
2023-06-07T06:30:28.550Z,101305.81
2023-06-07T06:32:56.076Z,101298.72
2023-06-07T06:35:23.338Z,101299.56
2023-06-07T06:37:50.688Z,101311.19
2023-06-07T06:40:21.094Z,101301.25
2023-06-07T06:42:48.457Z,101305.69
2023-06-07T06:45:15.873Z,101298.56
2023-06-07T06:47:43.415Z,101292.34
2023-06-07T06:50:30.024Z,101296.72
2023-06-07T06:52:59.060Z,101301.25
2023-06-07T06:55:26.392Z,101304.69
2023-06-07T06:57:53.691Z,101308.38
2023-06-07T07:00:21.720Z,101305.69
2023-06-07T07:02:49.032Z,101310.09
2023-06-07T07:05:16.748Z,101306.53
2023-06-07T07:07:44.177Z,101298.47
2023-06-07T07:10:12.884Z,101299.31
2023-06-07T07:12:40.209Z,101306.38
2023-06-07T07:15:07.893Z,101303.69
2023-06-07T07:17:35.237Z,101310.81
2023-06-07T07:20:02.883Z,101313.50
2023-06-07T07:22:30.372Z,101308.13
2023-06-07T07:25:06.050Z,101305.44
2023-06-07T07:27:34.660Z,101303.56
2023-06-07T07:30:03.098Z,101301.72
2023-06-07T07:32:31.925Z,101307.13
2023-06-07T07:34:59.273Z,101311.50
2023-06-07T07:37:29.313Z,101310.53
2023-06-07T07:39:58.236Z,101315.06
2023-06-07T07:42:25.506Z,101315.94
2023-06-07T07:44:52.751Z,101314.09
2023-06-07T07:47:20.011Z,101302.31
2023-06-07T07:49:47.314Z,101308.69
2023-06-07T07:52:14.637Z,101306.84
2023-06-07T07:54:42.206Z,101309.56
2023-06-07T07:57:09.507Z,101307.69
2023-06-07T07:59:36.734Z,101317.47
2023-06-07T08:02:04.980Z,101319.34
2023-06-07T08:04:32.231Z,101304.84
2023-06-07T08:06:59.459Z,101310.25
2023-06-07T08:09:26.841Z,101306.69
2023-06-07T08:11:54.074Z,101310.25
2023-06-07T08:14:21.448Z,101311.97
2023-06-07T08:16:49.357Z,101303.88
2023-06-07T08:19:16.805Z,101300.19
2023-06-07T08:21:45.098Z,101309.13
2023-06-07T08:24:15.474Z,101301.91
2023-06-07T08:26:46.614Z,101301.91
2023-06-07T08:29:13.910Z,101293.81
2023-06-07T08:31:44.545Z,101298.22
2023-06-07T08:34:12.370Z,101298.22
2023-06-07T08:36:43.408Z,101298.22
2023-06-07T08:39:10.788Z,101302.63
2023-06-07T08:41:38.156Z,101301.63
2023-06-07T08:44:05.518Z,101304.19
2023-06-07T08:46:33.635Z,101300.66
2023-06-07T08:49:02.919Z,101301.34
2023-06-07T08:51:30.759Z,101299.50
2023-06-07T08:54:03.446Z,101296.81
2023-06-07T08:56:32.946Z,101303.09
2023-06-07T08:59:01.020Z,101300.38
2023-06-07T09:01:32.250Z,101302.09
2023-06-07T09:04:00.069Z,101296.69
2023-06-07T09:06:28.138Z,101294.84
2023-06-07T09:08:55.419Z,101293.72
2023-06-07T09:11:22.721Z,101298.28
2023-06-07T09:13:50.538Z,101302.66
2023-06-07T09:16:18.008Z,101299.13
2023-06-07T09:18:57.654Z,101291.88
2023-06-07T09:21:27.640Z,101299.97
2023-06-07T09:24:00.317Z,101290.03
2023-06-07T09:26:39.864Z,101291.75
2023-06-07T09:29:13.055Z,101291.75
2023-06-07T09:31:41.020Z,101278.13
2023-06-07T09:34:27.821Z,101287.91
2023-06-07T09:37:00.258Z,101283.53
2023-06-07T09:39:34.094Z,101284.25
2023-06-07T09:42:01.492Z,101282.41
2023-06-07T09:44:30.948Z,101283.41
2023-06-07T09:47:03.144Z,101288.78
2023-06-07T09:49:37.589Z,101282.41
2023-06-07T09:52:14.968Z,101288.50
2023-06-07T09:54:46.368Z,101282.13
2023-06-07T09:57:30.703Z,101285.78
2023-06-07T10:00:15.996Z,101275.72
2023-06-07T10:02:44.679Z,101280.13
2023-06-07T10:05:15.557Z,101273.03
2023-06-07T10:07:47.078Z,101282.81
2023-06-07T10:10:17.859Z,101273.75
2023-06-07T10:12:47.474Z,101281.97
2023-06-07T10:15:16.781Z,101274.63
2023-06-07T10:18:13.709Z,101264.56
2023-06-07T10:20:42.559Z,101265.41
2023-06-07T10:23:13.775Z,101263.69
2023-06-07T10:25:59.787Z,101261.69
2023-06-07T10:28:44.582Z,101270.63
2023-06-07T10:31:13.943Z,101257.16
2023-06-07T10:33:42.557Z,101254.34
2023-06-07T10:36:10.986Z,101249.78
2023-06-07T10:38:39.571Z,101252.50
2023-06-07T10:41:06.936Z,101246.09
2023-06-07T10:43:34.971Z,101244.25
2023-06-07T10:46:21.938Z,101239.56
2023-06-07T10:48:49.376Z,101249.09
2023-06-07T10:51:16.969Z,101250.66
2023-06-07T10:53:54.337Z,101240.44
2023-06-07T10:56:35.370Z,101236.75
2023-06-07T10:59:15.701Z,101238.47
2023-06-07T11:01:51.834Z,101236.47
2023-06-07T11:04:41.116Z,101230.22
2023-06-07T11:07:21.057Z,101231.50
2023-06-07T11:09:49.909Z,101227.13
2023-06-07T11:12:42.411Z,101225.84
2023-06-07T11:15:39.406Z,101230.38
2023-06-07T11:18:13.741Z,101226.97
2023-06-07T11:20:44.780Z,101231.50
2023-06-07T11:23:35.263Z,101237.47
2023-06-07T11:26:11.789Z,101230.22
2023-06-07T11:28:40.786Z,101227.28
2023-06-07T11:31:12.313Z,101230.81
2023-06-07T11:33:41.903Z,101229.13
2023-06-07T11:36:12.554Z,101229.13
2023-06-07T11:38:42.507Z,101223.84
2023-06-07T11:41:09.806Z,101226.44
2023-06-07T11:43:37.918Z,101227.41
2023-06-07T11:46:05.230Z,101218.34
2023-06-07T11:48:32.880Z,101223.47
2023-06-07T11:51:01.354Z,101226.00
2023-06-07T11:53:32.463Z,101213.50
2023-06-07T11:56:01.031Z,101219.06
2023-06-07T11:58:28.504Z,101211.94
2023-06-07T12:00:57.616Z,101214.75
2023-06-07T12:03:25.970Z,101204.97
2023-06-07T12:05:54.266Z,101202.28
2023-06-07T12:08:23.389Z,101196.00
2023-06-07T12:10:57.137Z,101194.19
2023-06-07T12:13:25.015Z,101195.88
2023-06-07T12:15:57.087Z,101190.59
2023-06-07T12:18:29.324Z,101187.78
2023-06-07T12:21:07.291Z,101179.69
2023-06-07T12:23:53.593Z,101177.00
2023-06-07T12:26:22.891Z,101175.19
2023-06-07T12:28:51.987Z,101174.16
2023-06-07T12:31:24.321Z,101165.22
2023-06-07T12:33:55.269Z,101173.19
2023-06-07T12:36:28.742Z,101160.69
2023-06-07T12:38:58.605Z,101165.97
2023-06-07T12:41:29.139Z,101169.50
2023-06-07T12:43:58.350Z,101166.81
2023-06-07T12:46:26.088Z,101160.28
2023-06-07T12:48:53.558Z,101160.97
2023-06-07T12:51:25.291Z,101167.25
2023-06-07T12:53:53.490Z,101163.53
2023-06-07T12:56:21.348Z,101154.44
2023-06-07T12:58:48.801Z,101162.53
2023-06-07T13:01:16.994Z,101156.16
2023-06-07T13:03:44.765Z,101164.25
2023-06-07T13:06:12.298Z,101156.00
2023-06-07T13:08:39.720Z,101155.84
2023-06-07T13:11:07.126Z,101159.44
2023-06-07T13:13:34.621Z,101160.28
2023-06-07T13:16:01.926Z,101158.53
2023-06-07T13:18:30.522Z,101151.47
2023-06-07T13:20:58.352Z,101150.63
2023-06-07T13:23:25.662Z,101153.31
2023-06-07T13:25:52.984Z,101149.59
2023-06-07T13:28:20.922Z,101143.38
2023-06-07T13:30:48.329Z,101142.22
2023-06-07T13:33:19.383Z,101139.53
2023-06-07T13:35:46.722Z,101137.69
2023-06-07T13:38:14.031Z,101135.69
2023-06-07T13:40:41.271Z,101134.84
2023-06-07T13:43:08.575Z,101128.28
2023-06-07T13:45:37.322Z,101121.91
2023-06-07T13:48:04.625Z,101120.91
2023-06-07T13:50:32.073Z,101128.00
2023-06-07T13:53:00.050Z,101124.03
2023-06-07T13:55:27.384Z,101126.47
2023-06-07T13:57:55.956Z,101125.75
2023-06-07T14:00:23.496Z,101117.78
2023-06-07T14:02:51.377Z,101129.56
2023-06-07T14:05:18.830Z,101119.91
2023-06-07T14:07:46.341Z,101121.75
2023-06-07T14:10:13.703Z,101119.22
2023-06-07T14:12:41.818Z,101112.09
2023-06-07T14:15:09.834Z,101106.41
2023-06-07T14:17:38.258Z,101103.72
2023-06-07T14:20:06.421Z,101110.13
2023-06-07T14:22:34.281Z,101100.34
2023-06-07T14:25:01.553Z,101102.19
2023-06-07T14:27:28.779Z,101100.16
2023-06-07T14:29:56.134Z,101094.50
2023-06-07T14:32:23.740Z,101105.28
2023-06-07T14:34:51.401Z,101098.31
2023-06-07T14:37:18.634Z,101106.13
2023-06-07T14:39:45.913Z,101093.81
2023-06-07T14:42:15.815Z,101095.63
2023-06-07T14:44:44.845Z,101100.16
2023-06-07T14:47:12.175Z,101100.03
2023-06-07T14:49:39.420Z,101100.03
2023-06-07T14:52:07.094Z,101094.66
2023-06-07T14:54:34.322Z,101091.66
2023-06-07T14:57:01.575Z,101094.19
2023-06-07T14:59:29.049Z,101093.91
2023-06-07T15:01:56.315Z,101092.78
2023-06-07T15:04:23.567Z,101088.22
2023-06-07T15:06:50.878Z,101092.47
2023-06-07T15:09:18.172Z,101095.88
2023-06-07T15:11:45.941Z,101095.88
2023-06-07T15:14:13.224Z,101086.06
2023-06-07T15:16:40.919Z,101087.09
2023-06-07T15:19:08.136Z,101094.88
2023-06-07T15:21:35.689Z,101092.19
2023-06-07T15:24:03.007Z,101091.19
2023-06-07T15:26:30.308Z,101093.88
2023-06-07T15:29:00.470Z,101082.38
2023-06-07T15:31:27.802Z,101081.69
2023-06-07T15:33:56.381Z,101080.13
2023-06-07T15:36:27.357Z,101079.97
2023-06-07T15:38:54.693Z,101080.13
2023-06-07T15:41:23.258Z,101083.66
2023-06-07T15:43:50.716Z,101085.38
2023-06-07T15:46:18.031Z,101074.56
2023-06-07T15:48:49.012Z,101081.53
2023-06-07T15:51:16.236Z,101086.06
2023-06-07T15:53:43.847Z,101075.28
2023-06-07T15:56:11.127Z,101084.38
2023-06-07T15:58:38.443Z,101069.16
2023-06-07T16:01:05.774Z,101074.56
2023-06-07T16:03:46.362Z,101079.97
2023-06-07T16:06:20.593Z,101076.28
2023-06-07T16:08:47.865Z,101070.03
2023-06-07T16:11:15.091Z,101070.03
2023-06-07T16:13:42.792Z,101071.88
2023-06-07T16:16:10.145Z,101072.75
2023-06-07T16:18:38.275Z,101076.84
2023-06-07T16:21:05.608Z,101075.00
2023-06-07T16:23:33.036Z,101074.16
2023-06-07T16:26:00.555Z,101072.44
2023-06-07T16:28:27.799Z,101070.59
2023-06-07T16:30:55.050Z,101070.59
2023-06-07T16:33:22.274Z,101066.03
2023-06-07T16:35:49.543Z,101073.31
2023-06-07T16:38:18.007Z,101073.31
2023-06-07T16:40:45.804Z,101072.28
2023-06-07T16:43:13.042Z,101066.91
2023-06-07T16:45:40.952Z,101069.59
2023-06-07T16:48:08.233Z,101061.50
2023-06-07T16:50:35.508Z,101066.91
2023-06-07T16:53:02.744Z,101069.47
2023-06-07T16:55:30.000Z,101057.50
2023-06-07T16:57:57.243Z,101062.88
2023-06-07T17:00:24.511Z,101061.91
2023-06-07T17:02:51.778Z,101061.06
2023-06-07T17:05:21.000Z,101069.16
2023-06-07T17:07:48.615Z,101064.75
2023-06-07T17:10:15.964Z,101070.00
2023-06-07T17:12:43.205Z,101063.06
2023-06-07T17:15:10.686Z,101066.59
2023-06-07T17:17:37.941Z,101066.47
2023-06-07T17:20:06.094Z,101073.41
2023-06-07T17:22:33.519Z,101064.31
2023-06-07T17:25:00.834Z,101064.16
2023-06-07T17:27:28.074Z,101066.72
2023-06-07T17:29:55.432Z,101064.88
2023-06-07T17:32:22.650Z,101060.63
2023-06-07T17:34:50.069Z,101059.06
2023-06-07T17:37:18.816Z,101058.22
2023-06-07T17:39:46.519Z,101056.50
2023-06-07T17:42:16.991Z,101066.59
2023-06-07T17:44:44.473Z,101061.75
2023-06-07T17:47:13.877Z,101063.31
2023-06-07T17:49:42.443Z,101068.41
2023-06-07T17:52:21.827Z,101070.09
2023-06-07T17:54:50.065Z,101069.97
2023-06-07T17:57:17.357Z,101073.53
2023-06-07T17:59:44.665Z,101069.13
2023-06-07T18:02:11.990Z,101070.81
2023-06-07T18:04:39.329Z,101071.84
2023-06-07T18:07:07.111Z,101074.53
2023-06-07T18:09:34.453Z,101070.09
2023-06-07T18:12:01.710Z,101074.53
2023-06-07T18:14:29.405Z,101078.22
2023-06-07T18:16:56.612Z,101073.81
2023-06-07T18:19:23.864Z,101078.22
2023-06-07T18:21:53.113Z,101076.53
2023-06-07T18:24:20.520Z,101082.94
2023-06-07T18:26:47.936Z,101095.72
2023-06-07T18:29:16.530Z,101104.81
2023-06-07T18:31:43.978Z,101091.59
2023-06-07T18:34:11.268Z,101091.59
2023-06-07T18:36:38.569Z,101093.31
2023-06-07T18:39:06.141Z,101093.47
2023-06-07T18:41:33.411Z,101091.59
2023-06-07T18:44:02.096Z,101104.25
2023-06-07T18:46:29.819Z,101104.09
2023-06-07T18:48:57.264Z,101108.50
2023-06-07T18:51:24.970Z,101104.94
2023-06-07T18:53:52.907Z,101113.03
2023-06-07T18:56:21.146Z,101121.31
2023-06-07T18:58:48.427Z,101115.91
2023-06-07T19:01:16.334Z,101120.47
2023-06-07T19:03:44.460Z,101133.09
2023-06-07T19:06:11.896Z,101126.84
2023-06-07T19:08:40.137Z,101134.81
2023-06-07T19:11:07.691Z,101133.09
2023-06-07T19:13:35.053Z,101140.34
2023-06-07T19:16:02.365Z,101136.78
2023-06-07T19:18:29.585Z,101136.78
2023-06-07T19:20:56.816Z,101136.78
2023-06-07T19:23:24.119Z,101144.88
2023-06-07T19:25:51.386Z,101152.13
2023-06-07T19:28:18.699Z,101156.53
2023-06-07T19:30:46.256Z,101154.94
2023-06-07T19:33:13.560Z,101159.50
2023-06-07T19:35:41.429Z,101163.50
2023-06-07T19:38:11.702Z,101166.19
2023-06-07T19:40:39.028Z,101172.59
2023-06-07T19:43:06.242Z,101172.59
2023-06-07T19:45:33.531Z,101181.69
2023-06-07T19:48:01.612Z,101188.94
2023-06-07T19:50:28.947Z,101191.50
2023-06-07T19:52:56.310Z,101197.59
2023-06-07T19:55:23.640Z,101202.44
2023-06-07T19:57:50.904Z,101202.88
2023-06-07T20:00:18.522Z,101207.25
2023-06-07T20:02:48.271Z,101201.88
2023-06-07T20:05:16.035Z,101208.09
2023-06-07T20:07:43.296Z,101209.84
2023-06-07T20:10:10.869Z,101201.75
2023-06-07T20:12:38.131Z,101202.59
2023-06-07T20:15:05.946Z,101200.72
2023-06-07T20:17:34.682Z,101204.44
2023-06-07T20:20:02.192Z,101204.28
2023-06-07T20:22:32.015Z,101200.72
2023-06-07T20:24:59.531Z,101193.63
2023-06-07T20:27:27.218Z,101198.03
2023-06-07T20:29:55.879Z,101195.47
2023-06-07T20:32:23.478Z,101197.19
2023-06-07T20:34:50.855Z,101195.47
2023-06-07T20:37:18.357Z,101203.56
2023-06-07T20:39:45.756Z,101202.72
2023-06-07T20:42:13.324Z,101202.72
2023-06-07T20:44:52.665Z,101198.31
2023-06-07T20:47:21.918Z,101209.97
2023-06-07T20:49:49.284Z,101203.56
2023-06-07T20:52:16.720Z,101206.25
2023-06-07T20:54:44.021Z,101202.59
2023-06-07T20:57:11.580Z,101207.13
2023-06-07T20:59:45.938Z,101199.16
2023-06-07T21:02:13.254Z,101202.72
2023-06-07T21:04:40.656Z,101203.56
2023-06-07T21:07:08.080Z,101202.72
2023-06-07T21:09:35.751Z,101197.31
2023-06-07T21:12:04.169Z,101194.63
2023-06-07T21:14:31.516Z,101196.47
2023-06-07T21:16:58.887Z,101201.88
2023-06-07T21:19:26.296Z,101193.75
2023-06-07T21:21:53.653Z,101201.88
2023-06-07T21:24:21.124Z,101201.88
2023-06-07T21:26:48.544Z,101203.56
2023-06-07T21:29:15.892Z,101212.66
2023-06-07T21:31:43.445Z,101212.38
2023-06-07T21:34:13.573Z,101211.53
2023-06-07T21:36:41.528Z,101207.97
2023-06-07T21:39:09.122Z,101207.25
2023-06-07T21:41:38.461Z,101208.09
2023-06-07T21:44:05.852Z,101204.56
2023-06-07T21:46:33.133Z,101202.88
2023-06-07T21:49:00.537Z,101208.97
2023-06-07T21:51:27.981Z,101207.25
2023-06-07T21:53:55.431Z,101209.97
2023-06-07T21:56:22.809Z,101205.41
2023-06-07T21:58:50.076Z,101205.56
2023-06-07T22:01:17.536Z,101201.03
2023-06-07T22:03:44.983Z,101207.25
2023-06-07T22:06:12.682Z,101206.41
2023-06-07T22:08:40.314Z,101212.66
2023-06-07T22:11:07.566Z,101210.97
2023-06-07T22:13:37.954Z,101209.97
2023-06-07T22:16:05.665Z,101210.97
2023-06-07T22:18:36.309Z,101209.97
2023-06-07T22:21:04.860Z,101211.81
2023-06-07T22:23:32.764Z,101216.38
2023-06-07T22:26:03.667Z,101212.66
2023-06-07T22:28:33.696Z,101206.41
2023-06-07T22:31:03.729Z,101202.88
2023-06-07T22:33:33.176Z,101203.84
2023-06-07T22:36:00.667Z,101205.56
2023-06-07T22:38:27.913Z,101212.66
2023-06-07T22:40:55.623Z,101213.66
2023-06-07T22:43:23.027Z,101208.97
2023-06-07T22:45:50.301Z,101215.06
2023-06-07T22:48:19.880Z,101215.25
2023-06-07T22:50:48.511Z,101214.34
2023-06-07T22:53:16.308Z,101208.09
2023-06-07T22:55:43.626Z,101215.38
2023-06-07T22:58:11.214Z,101209.13
2023-06-07T23:00:40.375Z,101211.81
2023-06-07T23:03:08.625Z,101204.56
2023-06-07T23:05:36.849Z,101202.88
2023-06-07T23:08:04.206Z,101203.72
2023-06-07T23:10:36.823Z,101207.25
2023-06-07T23:13:10.531Z,101206.41
2023-06-07T23:15:42.174Z,101205.56
2023-06-07T23:18:11.855Z,101202.88
2023-06-07T23:20:42.036Z,101202.88
2023-06-07T23:23:11.302Z,101202.88
2023-06-07T23:25:39.073Z,101205.56
2023-06-07T23:28:06.874Z,101206.41
2023-06-07T23:30:34.579Z,101203.72
2023-06-07T23:33:02.052Z,101201.16
2023-06-07T23:35:29.589Z,101200.16
2023-06-07T23:37:57.046Z,101192.19
2023-06-07T23:40:24.286Z,101197.47
2023-06-07T23:42:52.858Z,101193.03
2023-06-07T23:45:23.819Z,101197.47
2023-06-07T23:47:51.125Z,101195.75
2023-06-07T23:50:18.417Z,101194.78
2023-06-07T23:52:45.622Z,101193.94
2023-06-07T23:55:12.901Z,101187.66
2023-06-07T23:57:40.154Z,101192.19
